Sagar Kanya — VTJR — position and weather

sailwx.info

Track history (hours):
 
Tides and Currents Weather Stations Pressure Air Temp Water Temp Dewpoint Dewpoint Depression Visibility Wind Speed Wind Dir Waves Ship Positions

Oceanographic research ship Sagar Kanya (India)

Detailed information on ship capabilities available from University of Delaware's Ocean Information Center.

Last reported at 2018-Dec-07 21:03 UTC. Time now 2018-Dec-13 00:08 UTC.
Position N 07°24' E 091°24'.

Type: Other ship. MMSI: 419320000.

Wind from 110 at 6 knots

Barometer 1009.4 mb
Air temperature 26.4 ° C

Date/timePositionNaut miles runAvg speedWind from/ knotsBaromVisibWave heightAir tempDewpointWater temp
2018-Dec-07 21:03N 07°24' E 091°24'18 6.0 110 / 61009.4 26.4
2018-Dec-07 18:03N 07°42' E 091°24'18 6.0 140 / 61011.0 27.8
2018-Dec-07 15:03N 08°00' E 091°24'24 4.0 140 / 101011.3 28.0
2018-Dec-07 09:03N 07°36' E 091°24'18 6.0 100 / 161007.9 28.3
2018-Dec-07 06:03N 07°18' E 091°24'12 4.0 100 / 101010.0 28.2
2018-Dec-07 03:03N 07°06' E 091°24'18 5.1 110 / 141011.3 28.1
2018-Dec-06 23:33N 06°48' E 091°24'18 7.2 120 / 121008.1 27.2
2018-Dec-06 21:03N 06°30' E 091°24'12 3.4 080 / 171007.1 27.0
2018-Dec-06 17:33N 06°18' E 091°24'12 4.8 070 / 121011.0 26.7
2018-Dec-06 15:03N 06°06' E 091°24'12 4.0 070 / 41011.4 26.4
2018-Dec-06 12:03N 05°54' E 091°24'18 6.0 110 / 81009.3 25.2
2018-Dec-06 09:03N 05°36' E 091°24'12 4.0 290 / 61007.6 26.3
2018-Dec-06 06:03N 05°24' E 091°24'   230 / 141009.7 25.1
2018-Nov-30 09:04N 05°24' E 081°42'13 4.5 020 / 231011.0 28.1
2018-Nov-30 06:04N 05°30' E 081°30'13 4.5 010 / 231013.9 27.6
2018-Nov-30 03:04N 05°36' E 081°18'25 4.1 020 / 191014.4 27.5
2018-Nov-29 21:04N 05°42' E 080°54'30 3.3 010 / 171011.9 27.3
2018-Nov-29 12:05N 05°42' E 080°24'12 4.0 070 / 141011.8 28.2
2018-Nov-29 09:05N 05°42' E 080°12'12 4.0 080 / 141011.0 28.3
2018-Nov-29 06:05N 05°42' E 080°00'12 3.4 060 / 121013.6 27.9
2018-Nov-29 02:35N 05°42' E 079°48'6 2.4 080 / 121014.1 27.5
2018-Nov-29 00:05N 05°42' E 079°42'12 4.0 060 / 141012.5 27.2
2018-Nov-28 21:05N 05°42' E 079°30'8 2.8 090 / 121011.7 27.8
2018-Nov-28 18:05N 05°48' E 079°24'13 4.5 100 / 141013.5 28.0
2018-Nov-28 15:05N 06°00' E 079°18'12 4.0 140 / 81013.6 28.0
2018-Nov-28 12:05N 06°12' E 079°18'19 6.3 240 / 81011.2 27.7
2018-Nov-28 09:05N 06°30' E 079°12'22 7.2 040 / 101010.3 28.3
2018-Nov-28 06:05N 06°48' E 079°00'44 7.3 050 / 171012.8 28.2
2018-Nov-28 00:05N 07°30' E 078°48'13 4.5 050 / 211011.1 27.4
2018-Nov-27 21:05N 07°42' E 078°42'   050 / 211011.1 27.5
Track history (hours):
 
Tides and Currents Weather Stations Pressure Air Temp Water Temp Dewpoint Dewpoint Depression Visibility Wind Speed Wind Dir Waves Ship Positions

Oceanographic research ship Sagar Kanya (India)

Detailed information on ship capabilities available from University of Delaware's Ocean Information Center.

Last reported at 2018-Dec-07 21:03 UTC. Time now 2018-Dec-13 00:08 UTC.
Position N 07°24' E 091°24'.

Type: Other ship. MMSI: 419320000.

Wind from 110 at 6 knots

Barometer 1009.4 mb
Air temperature 26.4 ° C

Date/timePositionNaut miles runAvg speedWind from/ knotsBaromVisibWave heightAir tempDewpointWater temp
2018-Dec-07 21:03N 07°24' E 091°24'18 6.0 110 / 61009.4 26.4
2018-Dec-07 18:03N 07°42' E 091°24'18 6.0 140 / 61011.0 27.8
2018-Dec-07 15:03N 08°00' E 091°24'24 4.0 140 / 101011.3 28.0
2018-Dec-07 09:03N 07°36' E 091°24'18 6.0 100 / 161007.9 28.3
2018-Dec-07 06:03N 07°18' E 091°24'12 4.0 100 / 101010.0 28.2
2018-Dec-07 03:03N 07°06' E 091°24'18 5.1 110 / 141011.3 28.1
2018-Dec-06 23:33N 06°48' E 091°24'18 7.2 120 / 121008.1 27.2
2018-Dec-06 21:03N 06°30' E 091°24'12 3.4 080 / 171007.1 27.0
2018-Dec-06 17:33N 06°18' E 091°24'12 4.8 070 / 121011.0 26.7
2018-Dec-06 15:03N 06°06' E 091°24'12 4.0 070 / 41011.4 26.4
2018-Dec-06 12:03N 05°54' E 091°24'18 6.0 110 / 81009.3 25.2
2018-Dec-06 09:03N 05°36' E 091°24'12 4.0 290 / 61007.6 26.3
2018-Dec-06 06:03N 05°24' E 091°24'   230 / 141009.7 25.1
2018-Nov-30 09:04N 05°24' E 081°42'13 4.5 020 / 231011.0 28.1
2018-Nov-30 06:04N 05°30' E 081°30'13 4.5 010 / 231013.9 27.6
2018-Nov-30 03:04N 05°36' E 081°18'25 4.1 020 / 191014.4 27.5
2018-Nov-29 21:04N 05°42' E 080°54'30 3.3 010 / 171011.9 27.3
2018-Nov-29 12:05N 05°42' E 080°24'12 4.0 070 / 141011.8 28.2
2018-Nov-29 09:05N 05°42' E 080°12'12 4.0 080 / 141011.0 28.3
2018-Nov-29 06:05N 05°42' E 080°00'12 3.4 060 / 121013.6 27.9
2018-Nov-29 02:35N 05°42' E 079°48'6 2.4 080 / 121014.1 27.5
2018-Nov-29 00:05N 05°42' E 079°42'12 4.0 060 / 141012.5 27.2
2018-Nov-28 21:05N 05°42' E 079°30'8 2.8 090 / 121011.7 27.8
2018-Nov-28 18:05N 05°48' E 079°24'13 4.5 100 / 141013.5 28.0
2018-Nov-28 15:05N 06°00' E 079°18'12 4.0 140 / 81013.6 28.0
2018-Nov-28 12:05N 06°12' E 079°18'19 6.3 240 / 81011.2 27.7
2018-Nov-28 09:05N 06°30' E 079°12'22 7.2 040 / 101010.3 28.3
2018-Nov-28 06:05N 06°48' E 079°00'44 7.3 050 / 171012.8 28.2
2018-Nov-28 00:05N 07°30' E 078°48'13 4.5 050 / 211011.1 27.4
2018-Nov-27 21:05N 07°42' E 078°42'   050 / 211011.1 27.5

Dump ship's entire track history